createdAt,value
2022-09-17T00:01:42.764Z,99297.94
2022-09-17T00:04:11.321Z,99285.69
2022-09-17T00:06:39.531Z,99283.03
2022-09-17T00:09:08.850Z,99272.88
2022-09-17T00:11:40.596Z,99259.41
2022-09-17T00:14:12.852Z,99275.38
2022-09-17T00:16:46.812Z,99267.06
2022-09-17T00:19:21.209Z,99292.16
2022-09-17T00:21:49.713Z,99285.75
2022-09-17T00:24:19.264Z,99276.88
2022-09-17T00:26:48.701Z,99282.59
2022-09-17T00:29:17.235Z,99310.53
2022-09-17T00:31:45.398Z,99302.41
2022-09-17T00:34:13.566Z,99293.06
2022-09-17T00:36:42.161Z,99300.13
2022-09-17T00:39:12.389Z,99319.69
2022-09-17T00:41:40.562Z,99320.97
2022-09-17T00:44:41.656Z,99319.16
2022-09-17T00:47:24.095Z,99322.22
2022-09-17T00:50:09.509Z,99322.41
2022-09-17T00:52:49.625Z,99333.00
2022-09-17T00:55:22.611Z,99326.50
2022-09-17T00:57:58.920Z,99330.81
2022-09-17T01:00:27.633Z,99320.03
2022-09-17T01:02:55.645Z,99320.84
2022-09-17T01:05:48.626Z,99317.38
2022-09-17T01:08:32.126Z,99305.41
2022-09-17T01:11:20.876Z,99288.97
2022-09-17T01:14:07.808Z,99297.16
2022-09-17T01:16:40.415Z,99303.50
2022-09-17T01:19:27.973Z,99299.84
2022-09-17T01:22:11.264Z,99304.56
2022-09-17T01:25:04.210Z,99311.06
2022-09-17T01:27:47.077Z,99311.25
2022-09-17T01:30:36.498Z,99315.16
2022-09-17T01:33:31.015Z,99310.66
2022-09-17T01:36:35.634Z,99318.00
2022-09-17T01:39:42.039Z,99318.59
2022-09-17T01:42:36.238Z,99321.47
2022-09-17T01:45:18.971Z,99307.59
2022-09-17T01:48:15.347Z,99322.47
2022-09-17T01:51:12.967Z,99323.91
2022-09-17T01:53:53.365Z,99320.25
2022-09-17T01:56:26.557Z,99316.56
2022-09-17T01:59:07.392Z,99310.88
2022-09-17T02:01:39.281Z,99318.00
2022-09-17T02:04:14.825Z,99321.44
2022-09-17T02:06:48.819Z,99319.22
2022-09-17T02:09:36.882Z,99321.88
2022-09-17T02:12:18.133Z,99319.84
2022-09-17T02:14:54.006Z,99322.88
2022-09-17T02:17:32.248Z,99317.38
2022-09-17T02:20:02.292Z,99321.03
2022-09-17T02:22:37.189Z,99314.16
2022-09-17T02:25:11.034Z,99320.25
2022-09-17T02:28:03.270Z,99311.69
2022-09-17T02:30:32.515Z,99314.94
2022-09-17T02:33:04.875Z,99313.72
2022-09-17T02:35:33.356Z,99313.75
2022-09-17T02:38:01.558Z,99303.97
2022-09-17T02:40:35.235Z,99300.72
2022-09-17T02:43:38.050Z,99285.63
2022-09-17T02:46:44.840Z,99279.94
2022-09-17T02:49:24.483Z,99275.88
2022-09-17T02:51:55.372Z,99310.88
2022-09-17T02:54:42.937Z,99304.38
2022-09-17T02:57:30.270Z,99302.72
2022-09-17T03:00:12.380Z,99294.19
2022-09-17T03:02:45.271Z,99295.84
2022-09-17T03:05:16.922Z,99298.88
2022-09-17T03:07:45.161Z,99300.91
2022-09-17T03:10:13.592Z,99286.25
2022-09-17T03:12:42.032Z,99277.91
2022-09-17T03:15:10.440Z,99279.75
2022-09-17T03:17:38.815Z,99257.16
2022-09-17T03:20:07.554Z,99248.16
2022-09-17T03:22:35.909Z,99245.75
2022-09-17T03:25:04.312Z,99234.94
2022-09-17T03:27:32.412Z,99243.53
2022-09-17T03:30:00.516Z,99242.28
2022-09-17T03:32:28.611Z,99251.47
2022-09-17T03:34:56.674Z,99249.41
2022-09-17T03:37:24.774Z,99256.09
2022-09-17T03:39:52.931Z,99269.19
2022-09-17T03:42:21.011Z,99267.53
2022-09-17T03:44:49.135Z,99269.34
2022-09-17T03:47:17.442Z,99263.66
2022-09-17T03:49:46.699Z,99276.06
2022-09-17T03:52:14.821Z,99279.13
2022-09-17T03:54:42.906Z,99285.84
2022-09-17T03:57:10.988Z,99287.72
2022-09-17T03:59:39.163Z,99287.06
2022-09-17T04:02:07.319Z,99285.44
2022-09-17T04:04:36.269Z,99281.38
2022-09-17T04:07:04.588Z,99281.38
2022-09-17T04:09:33.429Z,99276.69
2022-09-17T04:12:03.705Z,99280.97
2022-09-17T04:14:32.914Z,99283.63
2022-09-17T04:17:01.032Z,99294.78
2022-09-17T04:19:29.134Z,99291.50
2022-09-17T04:21:57.148Z,99289.19
2022-09-17T04:24:25.326Z,99308.03
2022-09-17T04:26:53.404Z,99315.91
2022-09-17T04:29:21.505Z,99332.75
2022-09-17T04:31:49.563Z,99346.88
2022-09-17T04:34:17.685Z,99364.97
2022-09-17T04:36:45.743Z,99378.97
2022-09-17T04:39:13.939Z,99384.03
2022-09-17T04:41:41.970Z,99392.72
2022-09-17T04:44:10.072Z,99401.91
2022-09-17T04:46:38.134Z,99407.31
2022-09-17T04:49:06.380Z,99404.44
2022-09-17T04:51:34.704Z,99404.88
2022-09-17T04:54:02.930Z,99423.34
2022-09-17T04:56:31.038Z,99439.16
2022-09-17T04:58:59.174Z,99437.47
2022-09-17T05:01:27.398Z,99437.53
2022-09-17T05:03:55.600Z,99447.19
2022-09-17T05:06:24.445Z,99445.81
2022-09-17T05:08:52.708Z,99443.13
2022-09-17T05:11:20.783Z,99443.56
2022-09-17T05:13:49.543Z,99453.34
2022-09-17T05:16:17.745Z,99452.13
2022-09-17T05:18:46.187Z,99437.31
2022-09-17T05:21:14.247Z,99417.72
2022-09-17T05:23:42.241Z,99412.94
2022-09-17T05:26:10.463Z,99420.25
2022-09-17T05:28:38.674Z,99431.88
2022-09-17T05:31:06.873Z,99430.28
2022-09-17T05:33:34.995Z,99427.16
2022-09-17T05:36:03.321Z,99429.88
2022-09-17T05:38:31.540Z,99431.22
2022-09-17T05:41:03.334Z,99425.28
2022-09-17T05:43:31.632Z,99439.63
2022-09-17T05:46:05.006Z,99441.78
2022-09-17T05:48:33.225Z,99451.50
2022-09-17T05:51:01.273Z,99456.06
2022-09-17T05:53:29.347Z,99459.25
2022-09-17T05:56:03.230Z,99448.09
2022-09-17T05:58:34.412Z,99439.13
2022-09-17T06:01:02.793Z,99458.25
2022-09-17T06:03:30.872Z,99469.19
2022-09-17T06:06:00.188Z,99485.00
2022-09-17T06:08:29.429Z,99497.50
2022-09-17T06:11:01.712Z,99502.63
2022-09-17T06:13:31.044Z,99498.53
2022-09-17T06:15:59.775Z,99498.19
2022-09-17T06:18:29.583Z,99502.44
2022-09-17T06:21:00.147Z,99520.41
2022-09-17T06:23:28.877Z,99534.97
2022-09-17T06:26:02.844Z,99542.94
2022-09-17T06:28:31.026Z,99551.97
2022-09-17T06:31:04.082Z,99562.84
2022-09-17T06:33:33.495Z,99583.94
2022-09-17T06:36:05.376Z,99613.88
2022-09-17T06:38:36.708Z,99627.78
2022-09-17T06:41:05.234Z,99635.06
2022-09-17T06:43:33.870Z,99648.59
2022-09-17T06:46:06.006Z,99651.16
2022-09-17T06:48:35.586Z,99662.78
2022-09-17T06:51:06.383Z,99662.56
2022-09-17T06:53:37.195Z,99670.00
2022-09-17T06:56:06.818Z,99674.38
2022-09-17T06:58:41.965Z,99690.09
2022-09-17T07:01:11.649Z,99692.13
2022-09-17T07:03:42.870Z,99688.66
2022-09-17T07:06:11.581Z,99689.81
2022-09-17T07:08:41.592Z,99698.69
2022-09-17T07:11:09.799Z,99708.69
2022-09-17T07:13:37.950Z,99722.47
2022-09-17T07:16:06.902Z,99735.41
2022-09-17T07:18:35.305Z,99757.59
2022-09-17T07:21:05.671Z,99777.63
2022-09-17T07:23:36.029Z,99781.91
2022-09-17T07:26:07.088Z,99783.88
2022-09-17T07:28:35.302Z,99793.41
2022-09-17T07:31:05.534Z,99781.09
2022-09-17T07:33:35.759Z,99784.06
2022-09-17T07:36:07.445Z,99801.13
2022-09-17T07:38:35.831Z,99794.88
2022-09-17T07:41:12.916Z,99794.84
2022-09-17T07:43:42.253Z,99797.59
2022-09-17T07:46:18.797Z,99787.78
2022-09-17T07:48:47.851Z,99763.94
2022-09-17T07:51:22.003Z,99741.63
2022-09-17T07:53:58.070Z,99725.75
2022-09-17T07:56:27.555Z,99725.41
2022-09-17T07:58:56.314Z,99693.88
2022-09-17T08:01:24.576Z,99706.53
2022-09-17T08:03:54.335Z,99696.19
2022-09-17T08:06:26.254Z,99691.28
2022-09-17T08:08:55.765Z,99683.91
2022-09-17T08:14:15.883Z,99644.19
2022-09-17T08:16:46.437Z,99630.88
2022-09-17T08:19:14.606Z,99627.44
2022-09-17T08:21:42.719Z,99615.63
2022-09-17T08:24:10.821Z,99583.25
2022-09-17T08:26:39.815Z,99589.81
2022-09-17T08:29:08.084Z,99596.03
2022-09-17T08:31:36.191Z,99628.50
2022-09-17T08:34:09.818Z,99635.31
2022-09-17T08:36:38.242Z,99689.88
2022-09-17T08:39:06.359Z,99705.25
2022-09-17T08:41:57.337Z,99739.41
2022-09-17T08:44:30.653Z,99742.50
2022-09-17T08:47:31.091Z,99747.09
2022-09-17T08:50:06.157Z,99761.50
2022-09-17T08:53:06.466Z,99747.94
2022-09-17T08:55:40.298Z,99746.56
2022-09-17T08:58:34.043Z,99756.31
2022-09-17T09:01:08.629Z,99761.25
2022-09-17T09:04:06.931Z,99754.50
2022-09-17T09:06:46.387Z,99762.22
2022-09-17T09:09:21.154Z,99777.19
2022-09-17T09:11:54.247Z,99776.31
2022-09-17T09:14:31.219Z,99782.66
2022-09-17T09:17:00.244Z,99788.84
2022-09-17T09:19:34.013Z,99802.25
2022-09-17T09:22:20.812Z,99814.38
2022-09-17T09:25:19.000Z,99837.31
2022-09-17T09:28:06.057Z,99839.13
2022-09-17T09:30:59.535Z,99832.09
2022-09-17T09:33:32.306Z,99826.16
2022-09-17T09:36:00.910Z,99834.25
2022-09-17T09:38:38.111Z,99839.81
2022-09-17T09:41:15.599Z,99856.09
2022-09-17T09:44:14.233Z,99864.44
2022-09-17T09:47:00.695Z,99878.25
2022-09-17T09:49:41.527Z,99871.81
2022-09-17T09:52:35.892Z,99872.28
2022-09-17T09:55:30.725Z,99875.44
2022-09-17T09:58:27.579Z,99884.34
2022-09-17T10:00:55.629Z,99903.13
2022-09-17T10:03:32.167Z,99900.03
2022-09-17T10:06:04.955Z,99910.22
2022-09-17T10:08:36.724Z,99914.44
2022-09-17T10:11:06.203Z,99927.91
2022-09-17T10:13:36.895Z,99921.91
2022-09-17T10:16:21.242Z,99926.75
2022-09-17T10:19:05.819Z,99924.34
2022-09-17T10:21:42.482Z,99919.81
2022-09-17T10:24:27.993Z,99925.97
2022-09-17T10:27:13.534Z,99927.00
2022-09-17T10:29:47.380Z,99923.44
2022-09-17T10:32:23.269Z,99926.03
2022-09-17T10:35:19.403Z,99925.00
2022-09-17T10:37:48.794Z,99933.22
2022-09-17T10:40:19.759Z,99929.75
2022-09-17T10:42:49.525Z,99936.03
2022-09-17T10:45:29.270Z,99945.31
2022-09-17T10:47:59.848Z,99938.19
2022-09-17T10:50:34.527Z,99941.47
2022-09-17T10:53:06.167Z,99935.97
2022-09-17T10:55:34.258Z,99938.56
2022-09-17T10:58:08.537Z,99932.31
2022-09-17T11:00:57.850Z,99943.38
2022-09-17T11:03:44.860Z,99945.19
2022-09-17T11:06:25.312Z,99942.34
2022-09-17T11:09:02.278Z,99945.28
2022-09-17T11:11:39.071Z,99939.69
2022-09-17T11:14:35.904Z,99945.56
2022-09-17T11:17:11.840Z,99941.41
2022-09-17T11:20:01.464Z,99949.91
2022-09-17T11:22:45.897Z,99959.69
2022-09-17T11:25:43.237Z,99965.09
2022-09-17T11:28:32.311Z,99950.03
2022-09-17T11:31:34.587Z,99949.19
2022-09-17T11:34:14.418Z,99952.88
2022-09-17T11:37:16.695Z,99951.72
2022-09-17T11:40:17.973Z,99952.28
2022-09-17T11:42:53.388Z,99941.56
2022-09-17T11:45:29.086Z,99945.31
2022-09-17T11:48:07.994Z,99954.19
2022-09-17T11:51:00.939Z,99943.56
2022-09-17T11:53:35.230Z,99946.69
2022-09-17T11:56:25.574Z,99948.38
2022-09-17T11:59:05.875Z,99949.19
2022-09-17T12:01:58.020Z,99948.94
2022-09-17T12:04:46.439Z,99952.41
2022-09-17T12:07:21.505Z,99944.63
2022-09-17T12:09:59.803Z,99955.91
2022-09-17T12:12:49.216Z,99959.91
2022-09-17T12:15:28.915Z,99965.16
2022-09-17T12:18:30.547Z,99958.91
2022-09-17T12:20:57.156Z,99958.94
2022-09-17T12:23:43.606Z,99965.94
2022-09-17T12:26:24.519Z,99961.56
2022-09-17T12:29:05.721Z,99950.81
2022-09-17T12:32:18.321Z,99958.91
2022-09-17T12:34:58.288Z,99960.59
2022-09-17T12:37:52.808Z,99967.75
2022-09-17T12:40:31.517Z,99976.41
2022-09-17T12:43:50.569Z,99977.69
2022-09-17T12:46:40.459Z,99982.56
2022-09-17T12:49:19.080Z,99980.69
2022-09-17T12:51:53.072Z,99978.91
2022-09-17T12:54:45.937Z,99972.25
2022-09-17T12:57:42.581Z,99974.72
2022-09-17T13:00:13.467Z,99970.75
2022-09-17T13:03:27.154Z,99968.75
2022-09-17T13:06:27.466Z,99971.22
2022-09-17T13:09:13.927Z,99970.81
2022-09-17T13:12:01.915Z,99976.28
2022-09-17T13:14:58.172Z,99974.53
2022-09-17T13:17:35.989Z,99973.13
2022-09-17T13:23:02.047Z,99973.75
2022-09-17T13:25:30.754Z,99979.25
2022-09-17T13:28:12.069Z,99978.06
2022-09-17T13:31:01.796Z,99972.94
2022-09-17T13:33:53.889Z,99967.78
2022-09-17T13:36:49.033Z,99965.09
2022-09-17T13:39:41.957Z,99970.78
2022-09-17T13:42:14.465Z,99979.63
2022-09-17T13:44:51.385Z,99966.06
2022-09-17T13:47:25.166Z,99979.91
2022-09-17T13:50:02.457Z,99980.66
2022-09-17T13:52:52.150Z,99978.38
2022-09-17T13:55:37.242Z,99983.59
2022-09-17T13:58:13.407Z,99982.59
2022-09-17T14:00:58.016Z,99985.28
2022-09-17T14:03:34.988Z,99995.44
2022-09-17T14:06:08.670Z,99979.81
2022-09-17T14:08:46.596Z,99996.88
2022-09-17T14:11:25.804Z,99995.06
2022-09-17T14:13:59.724Z,99987.38
2022-09-17T14:16:36.979Z,99986.44
2022-09-17T14:19:23.803Z,99982.25
2022-09-17T14:22:05.858Z,99986.56
2022-09-17T14:24:44.183Z,99986.25
2022-09-17T14:27:43.580Z,99987.56
2022-09-17T14:30:14.463Z,99986.06
2022-09-17T14:32:51.952Z,99993.41
2022-09-17T14:35:26.213Z,99989.72
2022-09-17T14:38:26.038Z,99986.53
2022-09-17T14:41:06.377Z,99977.28
2022-09-17T14:44:17.316Z,99976.78
2022-09-17T14:47:13.308Z,99986.22
2022-09-17T14:49:41.604Z,99987.25
2022-09-17T14:52:38.870Z,99978.16
2022-09-17T14:55:29.691Z,99973.88
2022-09-17T14:58:02.634Z,99973.66
2022-09-17T15:00:38.298Z,99975.97
2022-09-17T15:03:06.869Z,99984.09
2022-09-17T15:05:40.692Z,99981.03
2022-09-17T15:08:39.891Z,99986.56
2022-09-17T15:11:11.980Z,99982.44
2022-09-17T15:13:50.397Z,99980.94
2022-09-17T15:16:25.746Z,99986.44
2022-09-17T15:19:03.557Z,99985.41
2022-09-17T15:21:46.135Z,99983.56
2022-09-17T15:24:23.164Z,99988.03
2022-09-17T15:26:56.225Z,99985.72
2022-09-17T15:29:31.027Z,99983.06
2022-09-17T15:31:59.323Z,99982.34
2022-09-17T15:34:27.435Z,99984.88
2022-09-17T15:37:28.316Z,99985.03
2022-09-17T15:39:56.691Z,99986.84
2022-09-17T15:42:32.119Z,99986.84
2022-09-17T15:45:18.517Z,99988.03
2022-09-17T15:47:53.984Z,99995.00
2022-09-17T15:50:25.024Z,99990.88
2022-09-17T15:53:22.241Z,99989.03
2022-09-17T15:56:02.876Z,99990.63
2022-09-17T15:58:35.597Z,99995.78
2022-09-17T16:01:09.944Z,99997.25
2022-09-17T16:03:40.885Z,100002.53
2022-09-17T16:06:21.218Z,100004.81
2022-09-17T16:09:03.633Z,100004.19
2022-09-17T16:11:33.040Z,99995.69
2022-09-17T16:14:01.675Z,99996.38
2022-09-17T16:16:35.412Z,99999.63
2022-09-17T16:19:06.898Z,99995.19
2022-09-17T16:21:35.896Z,100004.94
2022-09-17T16:24:04.100Z,100004.31
2022-09-17T16:26:35.152Z,100005.47
2022-09-17T16:29:05.797Z,100006.38
2022-09-17T16:31:34.608Z,99996.53
2022-09-17T16:34:02.718Z,100000.88
2022-09-17T16:36:32.248Z,100012.00
2022-09-17T16:39:01.183Z,100008.72
2022-09-17T16:41:29.319Z,100021.53
2022-09-17T16:43:58.399Z,100015.53
2022-09-17T16:46:26.852Z,100020.28
2022-09-17T16:48:55.025Z,100017.75
2022-09-17T16:51:23.087Z,100013.84
2022-09-17T16:53:51.212Z,100010.81
2022-09-17T16:56:28.040Z,100005.00
2022-09-17T16:58:56.801Z,100009.00
2022-09-17T17:01:25.060Z,100004.72
2022-09-17T17:03:54.172Z,100013.94
2022-09-17T17:06:22.716Z,100013.75
2022-09-17T17:08:51.766Z,100013.56
2022-09-17T17:11:19.838Z,100015.56
2022-09-17T17:13:48.145Z,100012.56
2022-09-17T17:16:16.606Z,100017.13
2022-09-17T17:18:47.614Z,100022.50
2022-09-17T17:21:15.708Z,100028.75
2022-09-17T17:23:43.898Z,100025.56
2022-09-17T17:26:12.038Z,100029.44
2022-09-17T17:28:40.162Z,100038.34
2022-09-17T17:31:08.369Z,100040.91
2022-09-17T17:33:36.569Z,100038.38
2022-09-17T17:36:08.268Z,100049.53
2022-09-17T17:38:37.429Z,100050.59
2022-09-17T17:41:15.773Z,100057.63
2022-09-17T17:43:43.926Z,100060.00
2022-09-17T17:46:12.865Z,100069.75
2022-09-17T17:48:40.983Z,100073.38
2022-09-17T17:51:10.749Z,100082.50
2022-09-17T17:53:42.683Z,100085.31
2022-09-17T17:56:12.600Z,100081.41
2022-09-17T17:58:40.903Z,100082.09
2022-09-17T18:01:18.445Z,100098.25
2022-09-17T18:03:46.933Z,100098.75
2022-09-17T18:06:15.094Z,100092.81
2022-09-17T18:08:45.291Z,100093.16
2022-09-17T18:11:13.434Z,100087.91
2022-09-17T18:13:44.982Z,100090.03
2022-09-17T18:16:15.060Z,100095.00
2022-09-17T18:18:45.410Z,100091.19
2022-09-17T18:21:16.965Z,100106.53
2022-09-17T18:23:45.431Z,100103.06
2022-09-17T18:26:16.751Z,100110.16
2022-09-17T18:28:45.379Z,100107.38
2022-09-17T18:31:22.897Z,100112.34
2022-09-17T18:34:02.456Z,100116.94
2022-09-17T18:36:32.901Z,100124.84
2022-09-17T18:39:24.227Z,100129.78
2022-09-17T18:41:52.845Z,100131.13
2022-09-17T18:44:21.955Z,100132.09
2022-09-17T18:46:51.462Z,100137.69
2022-09-17T18:49:19.754Z,100140.81
2022-09-17T18:51:47.888Z,100134.88
2022-09-17T18:54:16.058Z,100139.81
2022-09-17T18:56:44.322Z,100142.13
2022-09-17T18:59:13.523Z,100143.91
2022-09-17T19:01:41.820Z,100155.56
2022-09-17T19:04:11.251Z,100157.88
2022-09-17T19:06:39.527Z,100153.94
2022-09-17T19:09:07.615Z,100160.16
2022-09-17T19:11:36.571Z,100159.66
2022-09-17T19:14:04.962Z,100158.50
2022-09-17T19:16:33.158Z,100161.63
2022-09-17T19:19:01.459Z,100151.75
2022-09-17T19:21:29.697Z,100157.50
2022-09-17T19:23:58.011Z,100155.22
2022-09-17T19:26:27.613Z,100168.03
2022-09-17T19:29:03.175Z,100167.34
2022-09-17T19:31:31.338Z,100167.81
2022-09-17T19:33:59.995Z,100171.75
2022-09-17T19:36:30.431Z,100174.38
2022-09-17T19:38:58.878Z,100180.00
2022-09-17T19:41:27.185Z,100179.47
2022-09-17T19:43:56.851Z,100182.44
2022-09-17T19:46:26.456Z,100177.97
2022-09-17T19:48:58.769Z,100183.53
2022-09-17T19:51:29.668Z,100183.81
2022-09-17T19:53:58.182Z,100177.56
2022-09-17T19:56:27.623Z,100173.00
2022-09-17T19:58:56.713Z,100182.03
2022-09-17T20:01:24.941Z,100181.97
2022-09-17T20:03:55.899Z,100182.50
2022-09-17T20:06:24.164Z,100184.47
2022-09-17T20:08:54.430Z,100188.25
2022-09-17T20:11:24.196Z,100192.81
2022-09-17T20:13:58.454Z,100186.88
2022-09-17T20:16:26.970Z,100190.34
2022-09-17T20:18:55.367Z,100202.63
2022-09-17T20:21:29.367Z,100205.69
2022-09-17T20:23:58.635Z,100201.41
2022-09-17T20:26:28.901Z,100208.03
2022-09-17T20:28:57.329Z,100207.69
2022-09-17T20:31:28.252Z,100210.66
2022-09-17T20:33:58.880Z,100214.63
2022-09-17T20:36:33.347Z,100202.91
2022-09-17T20:39:22.261Z,100206.06
2022-09-17T20:41:49.772Z,100206.53
2022-09-17T20:44:18.308Z,100209.94
2022-09-17T20:46:46.704Z,100224.84
2022-09-17T20:49:14.977Z,100223.19
2022-09-17T20:51:43.101Z,100221.78
2022-09-17T20:54:11.344Z,100221.03
2022-09-17T20:56:39.484Z,100227.41
2022-09-17T20:59:24.892Z,100222.00
2022-09-17T21:01:53.738Z,100240.69
2022-09-17T21:04:24.074Z,100236.41
2022-09-17T21:06:53.410Z,100236.41
2022-09-17T21:09:24.364Z,100238.44
2022-09-17T21:11:52.609Z,100244.81
2022-09-17T21:14:21.120Z,100246.53
2022-09-17T21:16:49.316Z,100251.63
2022-09-17T21:19:17.432Z,100252.97
2022-09-17T21:21:45.585Z,100250.72
2022-09-17T21:24:13.765Z,100242.63
2022-09-17T21:26:41.980Z,100255.59
2022-09-17T21:29:10.479Z,100245.09
2022-09-17T21:31:41.575Z,100258.69
2022-09-17T21:34:12.474Z,100255.81
2022-09-17T21:36:41.855Z,100254.94
2022-09-17T21:39:15.675Z,100258.97
2022-09-17T21:41:45.336Z,100265.28
2022-09-17T21:44:13.873Z,100262.28
2022-09-17T21:46:43.180Z,100264.06
2022-09-17T21:49:13.027Z,100262.56
2022-09-17T21:51:42.786Z,100264.38
2022-09-17T21:54:13.739Z,100258.44
2022-09-17T21:56:41.908Z,100258.28
2022-09-17T21:59:12.083Z,100266.47
2022-09-17T22:01:43.908Z,100264.22
2022-09-17T22:04:15.288Z,100270.81
2022-09-17T22:06:44.366Z,100263.53
2022-09-17T22:09:22.146Z,100266.75
2022-09-17T22:11:51.464Z,100259.41
2022-09-17T22:14:24.777Z,100264.28
2022-09-17T22:16:54.537Z,100260.53
2022-09-17T22:19:23.766Z,100259.66
2022-09-17T22:21:54.042Z,100259.66
2022-09-17T22:24:24.080Z,100262.78
2022-09-17T22:26:57.843Z,100256.06
2022-09-17T22:29:31.800Z,100261.00
2022-09-17T22:32:00.007Z,100254.63
2022-09-17T22:34:29.669Z,100258.41
2022-09-17T22:36:57.789Z,100260.06
2022-09-17T22:39:25.925Z,100259.41
2022-09-17T22:41:54.662Z,100267.88
2022-09-17T22:44:22.725Z,100269.94
2022-09-17T22:46:52.079Z,100275.03
2022-09-17T22:49:20.436Z,100265.09
2022-09-17T22:51:48.578Z,100265.91
2022-09-17T22:54:18.277Z,100266.47
2022-09-17T22:56:47.679Z,100270.50
2022-09-17T22:59:17.710Z,100261.81
2022-09-17T23:01:45.916Z,100254.06
2022-09-17T23:04:14.159Z,100251.59
2022-09-17T23:06:42.347Z,100246.50
2022-09-17T23:09:13.707Z,100249.66
2022-09-17T23:11:42.172Z,100239.44
2022-09-17T23:14:15.359Z,100236.16
2022-09-17T23:16:48.864Z,100227.16
2022-09-17T23:19:17.868Z,100240.00
2022-09-17T23:21:46.572Z,100241.09
2022-09-17T23:24:20.279Z,100246.19
2022-09-17T23:26:49.736Z,100244.84
2022-09-17T23:29:19.068Z,100250.16
2022-09-17T23:31:47.222Z,100246.28
2022-09-17T23:34:15.293Z,100253.47
2022-09-17T23:36:43.909Z,100253.06
2022-09-17T23:39:12.409Z,100251.72
2022-09-17T23:41:43.240Z,100250.72
2022-09-17T23:44:15.313Z,100261.34
2022-09-17T23:46:45.668Z,100261.19
2022-09-17T23:49:14.960Z,100263.00
2022-09-17T23:51:43.546Z,100267.97
2022-09-17T23:54:11.816Z,100268.00
2022-09-17T23:56:39.926Z,100269.50
2022-09-17T23:59:08.521Z,100267.97
